createdAt,value
2019-01-12T00:00:54.797Z,4.73
2019-01-12T00:03:25.137Z,5.30
2019-01-12T00:05:55.578Z,4.53
2019-01-12T00:08:26.081Z,5.27
2019-01-12T00:10:56.555Z,5.63
2019-01-12T00:13:26.678Z,5.30
2019-01-12T00:15:56.279Z,5.10
2019-01-12T00:18:26.522Z,5.13
2019-01-12T00:20:57.116Z,4.90
2019-01-12T00:23:46.459Z,5.40
2019-01-12T00:26:17.024Z,5.10
2019-01-12T00:28:47.583Z,4.60
2019-01-12T00:31:18.159Z,4.73
2019-01-12T00:33:48.844Z,4.67
2019-01-12T00:36:19.486Z,4.97
2019-01-12T00:38:50.065Z,5.03
2019-01-12T00:41:20.623Z,4.10
2019-01-12T00:43:51.128Z,4.80
2019-01-12T00:46:21.660Z,4.07
2019-01-12T00:48:51.967Z,3.67
2019-01-12T00:51:22.609Z,3.17
2019-01-12T00:53:53.281Z,3.73
2019-01-12T00:56:23.822Z,3.37
2019-01-12T00:58:54.419Z,3.43
2019-01-12T01:01:24.884Z,3.20
2019-01-12T01:03:55.040Z,3.47
2019-01-12T01:06:25.385Z,3.60
2019-01-12T01:08:55.981Z,3.60
2019-01-12T01:11:26.604Z,3.50
2019-01-12T01:13:57.272Z,3.93
2019-01-12T01:16:27.771Z,3.97
2019-01-12T01:18:57.619Z,3.70
2019-01-12T01:21:28.283Z,4.40
2019-01-12T01:23:58.767Z,3.80
2019-01-12T01:26:28.932Z,4.60
2019-01-12T01:28:59.189Z,4.83
2019-01-12T01:31:29.738Z,4.87
2019-01-12T01:33:59.966Z,5.37
2019-01-12T01:36:30.578Z,5.77
2019-01-12T01:39:01.284Z,6.00
2019-01-12T01:41:31.911Z,6.40
2019-01-12T01:44:02.259Z,7.63
2019-01-12T01:46:32.835Z,8.37
2019-01-12T01:49:03.055Z,7.80
2019-01-12T01:51:33.332Z,8.30
2019-01-12T01:54:03.225Z,8.47
2019-01-12T01:56:33.827Z,7.20
2019-01-12T01:59:04.342Z,8.03
2019-01-12T02:01:34.794Z,8.33
2019-01-12T02:04:05.076Z,7.57
2019-01-12T02:06:35.830Z,8.47
2019-01-12T02:09:08.326Z,8.67
2019-01-12T02:11:38.916Z,8.00
2019-01-12T02:14:09.558Z,7.63
2019-01-12T02:16:40.026Z,7.37
2019-01-12T02:19:10.574Z,7.60
2019-01-12T02:21:41.229Z,6.80
2019-01-12T02:24:11.755Z,7.30
2019-01-12T02:26:42.040Z,7.97
2019-01-12T02:29:12.168Z,7.90
2019-01-12T02:31:42.696Z,6.53
2019-01-12T02:34:13.022Z,6.57
2019-01-12T02:36:43.152Z,7.03
2019-01-12T02:39:13.288Z,7.17
2019-01-12T02:41:43.874Z,7.00
2019-01-12T02:44:14.344Z,7.40
2019-01-12T02:46:44.806Z,7.37
2019-01-12T02:49:15.464Z,6.50
2019-01-12T02:51:45.786Z,6.33
2019-01-12T02:54:16.260Z,6.27
2019-01-12T02:56:46.390Z,5.43
2019-01-12T02:59:16.957Z,6.20
2019-01-12T03:01:47.561Z,6.47
2019-01-12T03:04:17.877Z,7.13
2019-01-12T03:06:48.523Z,6.23
2019-01-12T03:09:18.476Z,6.10
2019-01-12T03:11:49.019Z,6.70
2019-01-12T03:14:19.202Z,6.30
2019-01-12T03:16:49.677Z,6.20
2019-01-12T03:19:20.164Z,6.07
2019-01-12T03:21:50.321Z,5.23
2019-01-12T03:24:20.956Z,5.53
2019-01-12T03:26:51.173Z,6.30
2019-01-12T03:29:21.778Z,5.77
2019-01-12T03:31:52.465Z,5.40
2019-01-12T03:34:23.108Z,4.77
2019-01-12T03:36:53.187Z,4.83
2019-01-12T03:39:23.923Z,4.70
2019-01-12T03:41:54.540Z,4.37
2019-01-12T03:44:24.307Z,4.17
2019-01-12T03:46:54.923Z,4.83
2019-01-12T03:49:25.097Z,4.30
2019-01-12T03:51:55.519Z,4.40
2019-01-12T03:54:25.814Z,4.70
2019-01-12T03:56:56.172Z,4.60
2019-01-12T03:59:26.466Z,4.30
2019-01-12T04:01:57.093Z,4.03
2019-01-12T04:04:27.254Z,4.33
2019-01-12T04:06:57.582Z,4.10
2019-01-12T04:09:27.755Z,3.60
2019-01-12T04:11:58.251Z,4.50
2019-01-12T04:14:28.732Z,4.03
2019-01-12T04:16:59.194Z,4.20
2019-01-12T04:19:48.125Z,4.30
2019-01-12T04:22:18.437Z,4.03
2019-01-12T04:24:48.987Z,4.50
2019-01-12T04:27:19.156Z,4.70
2019-01-12T04:29:49.042Z,4.07
2019-01-12T04:32:19.379Z,4.07
2019-01-12T04:34:49.570Z,3.90
2019-01-12T04:37:19.736Z,3.77
2019-01-12T04:39:50.434Z,4.00
2019-01-12T04:42:20.927Z,3.90
2019-01-12T04:44:51.433Z,4.13
2019-01-12T04:47:21.304Z,4.07
2019-01-12T04:49:51.603Z,3.47
2019-01-12T04:52:22.259Z,3.50
2019-01-12T04:54:52.523Z,3.37
2019-01-12T04:57:22.716Z,3.63
2019-01-12T04:59:53.262Z,3.70
2019-01-12T05:02:23.292Z,4.03
2019-01-12T05:04:53.963Z,4.20
2019-01-12T05:07:24.490Z,3.60
2019-01-12T05:09:55.652Z,3.63
2019-01-12T05:12:25.805Z,3.10
2019-01-12T05:14:56.330Z,3.50
2019-01-12T05:17:26.669Z,3.33
2019-01-12T05:19:56.844Z,3.43
2019-01-12T05:22:27.512Z,3.10
2019-01-12T05:24:58.093Z,3.03
2019-01-12T05:27:28.273Z,3.50
2019-01-12T05:29:58.503Z,3.33
2019-01-12T05:32:28.320Z,3.57
2019-01-12T05:34:58.525Z,3.47
2019-01-12T05:37:28.466Z,3.23
2019-01-12T05:39:59.047Z,3.13
2019-01-12T05:42:29.398Z,3.10
2019-01-12T05:44:59.791Z,3.10
2019-01-12T05:47:30.224Z,3.40
2019-01-12T05:50:00.451Z,2.80
2019-01-12T05:52:30.765Z,3.27
2019-01-12T05:55:00.978Z,2.77
2019-01-12T05:57:31.051Z,2.97
2019-01-12T06:00:01.710Z,3.30
2019-01-12T06:02:31.623Z,3.10
2019-01-12T06:05:02.136Z,2.60
2019-01-12T06:07:32.795Z,2.50
2019-01-12T06:10:03.331Z,2.90
2019-01-12T06:12:33.817Z,2.60
2019-01-12T06:15:04.998Z,2.83
2019-01-12T06:17:54.263Z,2.70
2019-01-12T06:20:24.491Z,2.60
2019-01-12T06:22:54.975Z,3.20
2019-01-12T06:25:25.546Z,2.60
2019-01-12T06:27:56.189Z,2.53
2019-01-12T06:30:26.417Z,2.77
2019-01-12T06:32:57.065Z,2.77
2019-01-12T06:35:27.634Z,2.60
2019-01-12T06:37:58.215Z,2.60
2019-01-12T06:40:28.691Z,3.00
2019-01-12T06:42:59.292Z,2.80
2019-01-12T06:45:48.203Z,2.70
2019-01-12T06:48:18.490Z,3.30
2019-01-12T06:50:48.680Z,3.30
2019-01-12T06:53:19.258Z,3.40
2019-01-12T06:55:49.430Z,3.23
2019-01-12T06:58:20.015Z,3.10
2019-01-12T07:00:50.305Z,3.73
2019-01-12T07:03:20.975Z,4.43
2019-01-12T07:05:51.834Z,3.93
2019-01-12T07:08:22.107Z,3.60
2019-01-12T07:10:52.671Z,17.23
2019-01-12T07:13:22.525Z,3.40
2019-01-12T07:15:53.084Z,2.77
2019-01-12T07:18:23.544Z,2.57
2019-01-12T07:20:53.971Z,2.60
2019-01-12T07:23:23.882Z,3.40
2019-01-12T07:25:54.163Z,2.80
2019-01-12T07:28:24.705Z,3.37
2019-01-12T07:30:54.938Z,3.20
2019-01-12T07:33:25.572Z,3.23
2019-01-12T07:35:56.164Z,2.93
2019-01-12T07:38:26.774Z,3.00
2019-01-12T07:40:57.383Z,2.90
2019-01-12T07:43:27.559Z,3.13
2019-01-12T07:45:57.766Z,4.63
2019-01-12T07:48:28.440Z,4.60
2019-01-12T07:50:58.621Z,3.30
2019-01-12T07:53:29.125Z,3.20
2019-01-12T07:55:59.587Z,3.33
2019-01-12T07:58:30.900Z,3.13
2019-01-12T08:01:03.889Z,3.30
2019-01-12T08:03:34.554Z,3.97
2019-01-12T08:06:04.974Z,4.57
2019-01-12T08:08:35.518Z,5.10
2019-01-12T08:11:06.136Z,5.53
2019-01-12T08:13:36.323Z,5.63
2019-01-12T08:16:06.602Z,6.47
2019-01-12T08:18:36.900Z,6.37
2019-01-12T08:21:07.111Z,6.03
2019-01-12T08:23:37.350Z,6.80
2019-01-12T08:26:07.582Z,5.80
2019-01-12T08:28:37.817Z,6.03
2019-01-12T08:31:08.257Z,6.20
2019-01-12T08:33:38.680Z,5.50
2019-01-12T08:36:08.825Z,5.67
2019-01-12T08:38:38.787Z,5.47
2019-01-12T08:41:09.352Z,5.73
2019-01-12T08:43:39.128Z,3.97
2019-01-12T08:46:09.463Z,3.33
2019-01-12T08:48:39.934Z,3.50
2019-01-12T08:51:10.388Z,3.13
2019-01-12T08:53:40.864Z,3.10
2019-01-12T08:56:11.339Z,2.90
2019-01-12T08:58:41.906Z,3.03
2019-01-12T09:01:12.400Z,2.90
2019-01-12T09:03:42.674Z,2.73
2019-01-12T09:06:12.696Z,3.13
2019-01-12T09:08:42.854Z,3.13
2019-01-12T09:11:13.283Z,2.93
2019-01-12T09:13:43.575Z,2.80
2019-01-12T09:16:14.040Z,3.10
2019-01-12T09:18:44.223Z,3.20
2019-01-12T09:21:14.456Z,3.00
2019-01-12T09:23:44.750Z,3.40
2019-01-12T09:26:14.586Z,3.33
2019-01-12T09:28:44.642Z,4.23
2019-01-12T09:31:14.500Z,3.67
2019-01-12T09:33:44.718Z,3.50
2019-01-12T09:36:15.056Z,3.37
2019-01-12T09:38:44.905Z,3.20
2019-01-12T09:41:15.479Z,3.17
2019-01-12T09:43:46.166Z,3.00
2019-01-12T09:46:16.330Z,3.03
2019-01-12T09:48:46.266Z,2.93
2019-01-12T09:51:16.217Z,3.03
2019-01-12T09:53:46.540Z,2.93
2019-01-12T09:56:17.198Z,2.30
2019-01-12T09:58:47.532Z,2.70
2019-01-12T10:01:18.096Z,2.50
2019-01-12T10:03:48.624Z,2.73
2019-01-12T10:06:19.332Z,5.40
2019-01-12T10:08:49.905Z,2.43
2019-01-12T10:11:20.002Z,2.00
2019-01-12T10:13:50.182Z,1.87
2019-01-12T10:16:20.388Z,2.30
2019-01-12T10:18:50.942Z,2.20
2019-01-12T10:21:21.558Z,2.03
2019-01-12T10:23:52.296Z,2.53
2019-01-12T10:26:22.495Z,2.30
2019-01-12T10:28:52.610Z,2.20
2019-01-12T10:31:22.986Z,2.30
2019-01-12T10:33:53.490Z,2.53
2019-01-12T10:36:23.753Z,2.63
2019-01-12T10:38:54.388Z,2.90
2019-01-12T10:41:24.606Z,2.47
2019-01-12T10:43:55.190Z,2.67
2019-01-12T10:46:25.714Z,2.30
2019-01-12T10:48:55.915Z,2.30
2019-01-12T10:51:26.490Z,2.97
2019-01-12T10:53:57.135Z,2.60
2019-01-12T10:56:27.825Z,2.87
2019-01-12T10:58:58.097Z,2.43
2019-01-12T11:01:28.726Z,2.17
2019-01-12T11:03:59.297Z,2.30
2019-01-12T11:06:28.790Z,2.37
2019-01-12T11:08:59.340Z,2.97
2019-01-12T11:11:29.829Z,2.73
2019-01-12T11:14:00.362Z,2.43
2019-01-12T11:16:31.106Z,2.77
2019-01-12T11:19:01.716Z,2.43
2019-01-12T11:21:32.306Z,3.17
2019-01-12T11:24:02.218Z,2.97
2019-01-12T11:26:32.710Z,3.10
2019-01-12T11:29:03.288Z,2.63
2019-01-12T11:31:33.826Z,3.03
2019-01-12T11:34:04.110Z,3.10
2019-01-12T11:36:34.672Z,2.87
2019-01-12T11:39:07.732Z,3.13
2019-01-12T11:41:38.086Z,3.43
2019-01-12T11:44:08.423Z,3.37
2019-01-12T11:46:38.598Z,3.80
2019-01-12T11:49:09.231Z,3.87
2019-01-12T11:51:39.636Z,3.27
2019-01-12T11:54:10.182Z,3.07
2019-01-12T11:56:40.722Z,3.63
2019-01-12T11:59:10.871Z,3.30
2019-01-12T12:01:41.363Z,2.70
2019-01-12T12:04:11.807Z,2.70
2019-01-12T12:06:41.994Z,2.50
2019-01-12T12:09:12.164Z,2.40
2019-01-12T12:11:42.792Z,2.50
2019-01-12T12:14:13.278Z,2.43
2019-01-12T12:16:43.435Z,2.50
2019-01-12T12:19:13.726Z,2.90
2019-01-12T12:21:44.197Z,3.47
2019-01-12T12:24:14.378Z,3.43
2019-01-12T12:27:05.127Z,2.87
2019-01-12T12:29:35.082Z,2.70
2019-01-12T12:32:05.105Z,2.40
2019-01-12T12:34:35.764Z,2.53
2019-01-12T12:37:06.230Z,2.53
2019-01-12T12:39:36.926Z,2.70
2019-01-12T12:42:07.225Z,2.10
2019-01-12T12:44:37.056Z,2.43
2019-01-12T12:47:07.568Z,2.50
2019-01-12T12:49:38.507Z,2.40
2019-01-12T12:52:09.132Z,2.00
2019-01-12T12:54:39.702Z,2.10
2019-01-12T12:57:10.499Z,2.30
2019-01-12T12:59:41.960Z,2.40
2019-01-12T13:02:12.058Z,2.40
2019-01-12T13:04:42.454Z,3.90
2019-01-12T13:07:13.924Z,2.50
2019-01-12T13:09:44.565Z,3.03
2019-01-12T13:12:14.951Z,3.17
2019-01-12T13:14:45.740Z,3.17
2019-01-12T13:17:16.373Z,2.53
2019-01-12T13:19:46.236Z,3.40
2019-01-12T13:22:16.993Z,12.03
2019-01-12T13:24:47.194Z,4.10
2019-01-12T13:27:18.783Z,3.00
2019-01-12T13:29:49.300Z,3.77
2019-01-12T13:32:19.867Z,3.63
2019-01-12T13:34:51.268Z,3.97
2019-01-12T13:37:22.468Z,3.90
2019-01-12T13:39:52.945Z,3.90
2019-01-12T13:42:23.139Z,4.63
2019-01-12T13:44:54.125Z,4.03
2019-01-12T13:47:24.587Z,4.90
2019-01-12T13:49:55.544Z,7.50
2019-01-12T13:52:25.424Z,4.63
2019-01-12T13:54:56.272Z,4.00
2019-01-12T13:57:34.298Z,4.50
2019-01-12T14:00:07.182Z,4.97
2019-01-12T14:02:38.058Z,4.87
2019-01-12T14:05:08.914Z,4.47
2019-01-12T14:07:39.197Z,4.50
2019-01-12T14:10:12.296Z,4.87
2019-01-12T14:12:42.959Z,4.87
2019-01-12T14:15:15.443Z,5.57
2019-01-12T14:17:46.573Z,5.10
2019-01-12T14:20:24.998Z,4.53
2019-01-12T14:22:55.626Z,4.63
2019-01-12T14:25:27.250Z,4.53
2019-01-12T14:27:58.282Z,4.90
2019-01-12T14:30:28.874Z,5.10
2019-01-12T14:32:58.671Z,5.60
2019-01-12T14:35:29.212Z,4.87
2019-01-12T14:37:59.395Z,5.07
2019-01-12T14:40:29.660Z,5.20
2019-01-12T14:42:59.852Z,5.37
2019-01-12T14:45:32.039Z,4.90
2019-01-12T14:48:02.295Z,5.03
2019-01-12T14:50:32.094Z,5.57
2019-01-12T14:53:02.263Z,5.67
2019-01-12T14:55:32.874Z,5.33
2019-01-12T14:58:03.395Z,4.63
2019-01-12T15:00:34.118Z,4.50
2019-01-12T15:03:04.303Z,4.60
2019-01-12T15:05:36.172Z,4.00
2019-01-12T15:08:07.160Z,4.10
2019-01-12T15:10:37.642Z,3.80
2019-01-12T15:13:07.837Z,4.40
2019-01-12T15:15:38.062Z,3.73
2019-01-12T15:18:08.354Z,4.83
2019-01-12T15:20:38.938Z,3.83
2019-01-12T15:23:09.315Z,5.13
2019-01-12T15:25:39.555Z,4.17
2019-01-12T15:28:10.186Z,4.20
2019-01-12T15:30:40.763Z,3.17
2019-01-12T15:33:12.518Z,3.10
2019-01-12T15:35:44.206Z,3.20
2019-01-12T15:38:14.145Z,3.33
2019-01-12T15:40:44.722Z,3.03
2019-01-12T15:43:32.068Z,2.90
2019-01-12T15:46:02.475Z,3.87
2019-01-12T15:48:33.430Z,3.70
2019-01-12T15:51:04.191Z,3.43
2019-01-12T15:53:35.052Z,3.57
2019-01-12T15:56:04.652Z,3.60
2019-01-12T15:58:34.668Z,3.10
2019-01-12T16:01:05.404Z,4.10
2019-01-12T16:03:36.096Z,3.53
2019-01-12T16:06:06.828Z,5.97
2019-01-12T16:08:38.028Z,4.20
2019-01-12T16:11:08.857Z,4.70
2019-01-12T16:13:39.695Z,5.53
2019-01-12T16:16:11.022Z,3.90
2019-01-12T16:18:41.891Z,4.37
2019-01-12T16:21:12.642Z,3.60
2019-01-12T16:23:43.101Z,4.00
2019-01-12T16:26:13.278Z,3.60
2019-01-12T16:28:43.802Z,3.10
2019-01-12T16:31:14.393Z,3.30
2019-01-12T16:33:45.003Z,3.30
2019-01-12T16:36:34.235Z,3.37
2019-01-12T16:39:05.483Z,4.17
2019-01-12T16:41:35.584Z,3.73
2019-01-12T16:44:06.171Z,3.57
2019-01-12T16:46:36.779Z,5.67
2019-01-12T16:49:07.283Z,7.23
2019-01-12T16:51:37.826Z,10.20
2019-01-12T16:54:07.855Z,4.87
2019-01-12T16:56:38.057Z,7.00
2019-01-12T16:59:08.240Z,5.83
2019-01-12T17:01:38.464Z,5.30
2019-01-12T17:04:15.610Z,5.37
2019-01-12T17:06:45.856Z,4.47
2019-01-12T17:09:15.796Z,3.40
2019-01-12T17:11:46.291Z,3.57
2019-01-12T17:14:16.933Z,3.10
2019-01-12T17:16:47.350Z,4.67
2019-01-12T17:19:17.585Z,3.67
2019-01-12T17:21:48.148Z,3.40
2019-01-12T17:24:18.196Z,5.20
2019-01-12T17:26:48.442Z,5.20
2019-01-12T17:29:19.007Z,2.77
2019-01-12T17:31:49.625Z,3.60
2019-01-12T17:34:20.098Z,3.63
2019-01-12T17:36:50.699Z,4.03
2019-01-12T17:39:21.179Z,3.10
2019-01-12T17:41:51.720Z,4.80
2019-01-12T17:44:21.998Z,4.57
2019-01-12T17:46:52.601Z,2.67
2019-01-12T17:49:22.829Z,3.70
2019-01-12T17:51:53.360Z,3.20
2019-01-12T17:54:23.251Z,3.03
2019-01-12T17:56:53.852Z,3.60
2019-01-12T17:59:23.826Z,3.90
2019-01-12T18:01:53.988Z,2.83
2019-01-12T18:04:43.416Z,3.57
2019-01-12T18:07:13.640Z,4.47
2019-01-12T18:09:43.872Z,2.80
2019-01-12T18:12:14.081Z,4.40
2019-01-12T18:14:44.420Z,3.77
2019-01-12T18:17:14.603Z,4.50
2019-01-12T18:19:44.540Z,3.07
2019-01-12T18:22:15.096Z,3.67
2019-01-12T18:24:45.259Z,3.33
2019-01-12T18:27:15.656Z,3.70
2019-01-12T18:29:45.612Z,3.50
2019-01-12T18:32:15.846Z,3.43
2019-01-12T18:34:45.828Z,3.37
2019-01-12T18:37:16.032Z,3.57
2019-01-12T18:39:47.719Z,4.33
2019-01-12T18:42:17.990Z,4.07
2019-01-12T18:45:07.799Z,4.50
2019-01-12T18:47:38.278Z,3.30
2019-01-12T18:50:11.897Z,4.80
2019-01-12T18:52:42.504Z,4.67
2019-01-12T18:55:13.356Z,4.67
2019-01-12T18:57:44.125Z,4.87
2019-01-12T19:00:18.538Z,4.83
2019-01-12T19:02:49.271Z,6.70
2019-01-12T19:05:19.945Z,6.33
2019-01-12T19:07:50.239Z,6.13
2019-01-12T19:10:20.994Z,6.10
2019-01-12T19:12:50.911Z,6.30
2019-01-12T19:15:26.459Z,5.80
2019-01-12T19:17:56.791Z,5.40
2019-01-12T19:20:27.053Z,5.40
2019-01-12T19:22:57.126Z,4.83
2019-01-12T19:25:27.628Z,5.00
2019-01-12T19:27:58.190Z,5.97
2019-01-12T19:30:28.820Z,5.83
2019-01-12T19:32:59.090Z,5.57
2019-01-12T19:35:29.690Z,5.10
2019-01-12T19:38:00.007Z,4.73
2019-01-12T19:40:30.507Z,3.70
2019-01-12T19:43:00.758Z,3.27
2019-01-12T19:45:31.424Z,4.00
2019-01-12T19:48:01.881Z,3.60
2019-01-12T19:50:32.150Z,2.70
2019-01-12T19:53:02.820Z,3.20
2019-01-12T19:55:33.271Z,3.03
2019-01-12T19:58:03.502Z,2.17
2019-01-12T20:00:34.962Z,2.30
2019-01-12T20:03:05.422Z,1.60
2019-01-12T20:05:36.100Z,2.07
2019-01-12T20:08:06.800Z,1.67
2019-01-12T20:10:37.373Z,1.73
2019-01-12T20:13:07.599Z,1.70
2019-01-12T20:15:38.102Z,1.27
2019-01-12T20:18:08.491Z,1.20
2019-01-12T20:20:37.750Z,1.20
2019-01-12T20:23:08.302Z,1.10
2019-01-12T20:25:38.586Z,0.93
2019-01-12T20:28:16.376Z,1.30
2019-01-12T20:31:32.253Z,1.10
2019-01-12T20:34:18.955Z,1.17
2019-01-12T20:37:15.155Z,0.90
2019-01-12T20:40:10.355Z,1.33
2019-01-12T20:43:08.203Z,0.83
2019-01-12T20:46:08.308Z,0.77
2019-01-12T20:49:02.702Z,0.80
2019-01-12T20:51:51.190Z,1.00
2019-01-12T20:55:11.125Z,0.70
2019-01-12T20:58:12.307Z,0.70
2019-01-12T21:01:09.263Z,0.70
2019-01-12T21:04:18.885Z,0.80
2019-01-12T21:07:25.333Z,0.60
2019-01-12T21:10:41.413Z,0.60
2019-01-12T21:13:59.697Z,0.60
2019-01-12T21:16:43.910Z,0.67
2019-01-12T21:19:15.197Z,0.60
2019-01-12T21:21:51.611Z,0.63
2019-01-12T21:24:22.262Z,0.40
2019-01-12T21:26:52.512Z,0.60
2019-01-12T21:29:25.899Z,0.63
2019-01-12T21:31:56.497Z,0.60
2019-01-12T21:34:26.885Z,0.60
2019-01-12T21:36:57.572Z,0.50
2019-01-12T21:39:28.518Z,0.50
2019-01-12T21:42:01.982Z,0.50
2019-01-12T21:44:32.611Z,0.40
2019-01-12T21:47:02.648Z,0.60
2019-01-12T21:49:47.848Z,0.70
2019-01-12T21:52:24.899Z,0.60
2019-01-12T21:54:55.012Z,0.53
2019-01-12T21:57:25.314Z,0.50
2019-01-12T21:59:55.920Z,0.40
2019-01-12T22:02:26.296Z,0.50
2019-01-12T22:04:56.888Z,0.43
2019-01-12T22:07:27.485Z,0.40
2019-01-12T22:09:58.056Z,0.60
2019-01-12T22:12:28.259Z,0.50
2019-01-12T22:14:59.150Z,0.40
2019-01-12T22:17:29.874Z,0.50
2019-01-12T22:20:00.138Z,0.50
2019-01-12T22:22:30.462Z,0.40
2019-01-12T22:25:00.813Z,0.50
2019-01-12T22:27:31.129Z,0.40
2019-01-12T22:30:01.404Z,0.50
2019-01-12T22:32:32.152Z,0.60
2019-01-12T22:35:02.516Z,0.40
2019-01-12T22:37:32.883Z,0.40
2019-01-12T22:40:03.553Z,0.60
2019-01-12T22:42:35.798Z,0.40
2019-01-12T22:45:06.799Z,0.50
2019-01-12T22:47:37.419Z,0.40
2019-01-12T22:50:09.589Z,0.50
2019-01-12T22:52:39.812Z,0.60
2019-01-12T22:55:11.743Z,0.50
2019-01-12T22:58:00.342Z,0.50
2019-01-12T23:00:44.425Z,0.60
2019-01-12T23:03:14.670Z,0.50
2019-01-12T23:05:44.926Z,0.50
2019-01-12T23:08:15.132Z,0.50
2019-01-12T23:10:45.453Z,0.40
2019-01-12T23:13:15.670Z,0.50
2019-01-12T23:15:45.590Z,0.50
2019-01-12T23:18:16.151Z,0.50
2019-01-12T23:20:46.874Z,0.30
2019-01-12T23:23:16.680Z,0.40
2019-01-12T23:25:47.198Z,0.87
2019-01-12T23:28:17.764Z,0.40
2019-01-12T23:30:47.915Z,0.60
2019-01-12T23:33:18.436Z,0.60
2019-01-12T23:35:49.126Z,0.57
2019-01-12T23:38:19.419Z,0.33
2019-01-12T23:40:49.268Z,0.70
2019-01-12T23:43:19.891Z,0.50
2019-01-12T23:45:50.063Z,0.47
2019-01-12T23:48:20.676Z,0.40
2019-01-12T23:50:50.838Z,0.50
2019-01-12T23:53:20.362Z,0.50
2019-01-12T23:55:51.014Z,0.50
2019-01-12T23:58:21.271Z,0.50
